sensor_id;sensor_type;location;lat;lon;timestamp;P1;durP1;ratioP1;P2;durP2;ratioP2
37205;SDS011;23099;42.636;23.198;2023-05-29T00:01:06;9.48;;;3.22;;
37205;SDS011;23099;42.636;23.198;2023-05-29T00:03:34;6.82;;;2.97;;
37205;SDS011;23099;42.636;23.198;2023-05-29T00:06:01;6.57;;;3.17;;
37205;SDS011;23099;42.636;23.198;2023-05-29T00:08:30;8.90;;;3.60;;
37205;SDS011;23099;42.636;23.198;2023-05-29T00:10:57;7.85;;;3.33;;
37205;SDS011;23099;42.636;23.198;2023-05-29T00:13:25;7.80;;;3.85;;
37205;SDS011;23099;42.636;23.198;2023-05-29T00:15:51;8.10;;;3.70;;
37205;SDS011;23099;42.636;23.198;2023-05-29T00:18:18;8.82;;;3.08;;
37205;SDS011;23099;42.636;23.198;2023-05-29T00:20:45;8.27;;;3.10;;
37205;SDS011;23099;42.636;23.198;2023-05-29T00:23:11;10.38;;;3.30;;
37205;SDS011;23099;42.636;23.198;2023-05-29T00:25:39;11.45;;;3.60;;
37205;SDS011;23099;42.636;23.198;2023-05-29T00:28:06;6.82;;;3.40;;
37205;SDS011;23099;42.636;23.198;2023-05-29T00:30:34;9.98;;;3.42;;
37205;SDS011;23099;42.636;23.198;2023-05-29T00:33:01;8.20;;;3.10;;
37205;SDS011;23099;42.636;23.198;2023-05-29T00:35:27;8.43;;;3.13;;
37205;SDS011;23099;42.636;23.198;2023-05-29T00:37:54;9.85;;;4.00;;
37205;SDS011;23099;42.636;23.198;2023-05-29T00:40:21;8.80;;;4.18;;
37205;SDS011;23099;42.636;23.198;2023-05-29T00:42:49;14.38;;;4.40;;
37205;SDS011;23099;42.636;23.198;2023-05-29T00:45:16;7.85;;;3.78;;
37205;SDS011;23099;42.636;23.198;2023-05-29T00:47:43;9.32;;;3.80;;
37205;SDS011;23099;42.636;23.198;2023-05-29T00:50:11;13.18;;;4.28;;
37205;SDS011;23099;42.636;23.198;2023-05-29T00:55:07;10.17;;;3.67;;
37205;SDS011;23099;42.636;23.198;2023-05-29T00:57:35;8.27;;;3.63;;
37205;SDS011;23099;42.636;23.198;2023-05-29T01:00:04;9.63;;;4.03;;
37205;SDS011;23099;42.636;23.198;2023-05-29T01:02:33;9.35;;;3.83;;
37205;SDS011;23099;42.636;23.198;2023-05-29T01:05:02;8.68;;;3.92;;
37205;SDS011;23099;42.636;23.198;2023-05-29T01:07:30;7.03;;;3.42;;
37205;SDS011;23099;42.636;23.198;2023-05-29T01:09:57;8.20;;;3.50;;
37205;SDS011;23099;42.636;23.198;2023-05-29T01:12:27;8.25;;;3.45;;
37205;SDS011;23099;42.636;23.198;2023-05-29T01:15:07;8.18;;;3.65;;
37205;SDS011;23099;42.636;23.198;2023-05-29T01:17:45;9.35;;;3.60;;
37205;SDS011;23099;42.636;23.198;2023-05-29T01:20:23;10.45;;;4.65;;
37205;SDS011;23099;42.636;23.198;2023-05-29T01:26:09;8.20;;;4.38;;
37205;SDS011;23099;42.636;23.198;2023-05-29T01:28:46;9.52;;;4.63;;
37205;SDS011;23099;42.636;23.198;2023-05-29T01:31:16;11.05;;;5.28;;
37205;SDS011;23099;42.636;23.198;2023-05-29T01:33:51;10.20;;;6.07;;
37205;SDS011;23099;42.636;23.198;2023-05-29T01:36:18;14.45;;;6.55;;
37205;SDS011;23099;42.636;23.198;2023-05-29T01:38:45;11.68;;;6.88;;
37205;SDS011;23099;42.636;23.198;2023-05-29T01:41:12;13.43;;;6.13;;
37205;SDS011;23099;42.636;23.198;2023-05-29T01:43:40;11.27;;;5.78;;
37205;SDS011;23099;42.636;23.198;2023-05-29T01:46:09;13.73;;;6.38;;
37205;SDS011;23099;42.636;23.198;2023-05-29T01:51:03;9.60;;;5.03;;
37205;SDS011;23099;42.636;23.198;2023-05-29T01:53:30;11.20;;;5.35;;
37205;SDS011;23099;42.636;23.198;2023-05-29T01:55:57;12.85;;;5.20;;
37205;SDS011;23099;42.636;23.198;2023-05-29T01:58:24;10.68;;;5.85;;
37205;SDS011;23099;42.636;23.198;2023-05-29T02:00:52;13.30;;;5.07;;
37205;SDS011;23099;42.636;23.198;2023-05-29T02:03:21;14.60;;;5.40;;
37205;SDS011;23099;42.636;23.198;2023-05-29T02:05:48;12.80;;;5.45;;
37205;SDS011;23099;42.636;23.198;2023-05-29T02:08:15;10.52;;;5.80;;
37205;SDS011;23099;42.636;23.198;2023-05-29T02:10:42;13.05;;;6.07;;
37205;SDS011;23099;42.636;23.198;2023-05-29T02:13:08;12.18;;;6.40;;
37205;SDS011;23099;42.636;23.198;2023-05-29T02:15:35;13.05;;;6.85;;
37205;SDS011;23099;42.636;23.198;2023-05-29T02:18:02;10.82;;;6.50;;
37205;SDS011;23099;42.636;23.198;2023-05-29T02:20:30;13.30;;;7.07;;
37205;SDS011;23099;42.636;23.198;2023-05-29T02:22:57;12.70;;;6.90;;
37205;SDS011;23099;42.636;23.198;2023-05-29T02:25:23;12.88;;;6.32;;
37205;SDS011;23099;42.636;23.198;2023-05-29T02:27:50;12.32;;;6.95;;
37205;SDS011;23099;42.636;23.198;2023-05-29T02:30:17;16.88;;;8.30;;
37205;SDS011;23099;42.636;23.198;2023-05-29T02:32:44;14.68;;;7.45;;
37205;SDS011;23099;42.636;23.198;2023-05-29T02:35:10;12.38;;;6.88;;
37205;SDS011;23099;42.636;23.198;2023-05-29T02:37:40;14.07;;;7.70;;
37205;SDS011;23099;42.636;23.198;2023-05-29T02:40:07;13.73;;;7.53;;
37205;SDS011;23099;42.636;23.198;2023-05-29T02:42:34;14.07;;;8.13;;
37205;SDS011;23099;42.636;23.198;2023-05-29T02:45:01;14.43;;;7.95;;
37205;SDS011;23099;42.636;23.198;2023-05-29T02:47:28;15.43;;;7.72;;
37205;SDS011;23099;42.636;23.198;2023-05-29T02:49:55;12.90;;;8.00;;
37205;SDS011;23099;42.636;23.198;2023-05-29T02:52:22;14.13;;;8.15;;
37205;SDS011;23099;42.636;23.198;2023-05-29T02:54:50;15.55;;;9.00;;
37205;SDS011;23099;42.636;23.198;2023-05-29T02:57:18;17.42;;;9.77;;
37205;SDS011;23099;42.636;23.198;2023-05-29T02:59:45;17.52;;;9.88;;
37205;SDS011;23099;42.636;23.198;2023-05-29T03:02:12;17.98;;;10.10;;
37205;SDS011;23099;42.636;23.198;2023-05-29T03:04:39;18.63;;;10.35;;
37205;SDS011;23099;42.636;23.198;2023-05-29T03:07:06;17.67;;;9.95;;
37205;SDS011;23099;42.636;23.198;2023-05-29T03:09:34;16.67;;;9.85;;
37205;SDS011;23099;42.636;23.198;2023-05-29T03:12:02;14.95;;;8.68;;
37205;SDS011;23099;42.636;23.198;2023-05-29T03:14:30;16.08;;;8.25;;
37205;SDS011;23099;42.636;23.198;2023-05-29T03:17:01;14.90;;;9.45;;
37205;SDS011;23099;42.636;23.198;2023-05-29T03:19:28;17.25;;;9.18;;
37205;SDS011;23099;42.636;23.198;2023-05-29T03:21:54;16.83;;;8.95;;
37205;SDS011;23099;42.636;23.198;2023-05-29T03:24:21;16.67;;;9.55;;
37205;SDS011;23099;42.636;23.198;2023-05-29T03:26:48;15.18;;;9.45;;
37205;SDS011;23099;42.636;23.198;2023-05-29T03:29:17;15.30;;;9.05;;
37205;SDS011;23099;42.636;23.198;2023-05-29T03:31:43;15.50;;;9.13;;
37205;SDS011;23099;42.636;23.198;2023-05-29T03:34:10;18.70;;;8.93;;
37205;SDS011;23099;42.636;23.198;2023-05-29T03:36:38;16.85;;;8.45;;
37205;SDS011;23099;42.636;23.198;2023-05-29T03:39:05;16.55;;;7.97;;
37205;SDS011;23099;42.636;23.198;2023-05-29T03:41:31;13.88;;;8.00;;
37205;SDS011;23099;42.636;23.198;2023-05-29T03:43:58;19.10;;;9.13;;
37205;SDS011;23099;42.636;23.198;2023-05-29T03:46:26;23.85;;;11.52;;
37205;SDS011;23099;42.636;23.198;2023-05-29T03:48:53;17.30;;;8.63;;
37205;SDS011;23099;42.636;23.198;2023-05-29T03:51:20;14.65;;;7.93;;
37205;SDS011;23099;42.636;23.198;2023-05-29T03:53:47;13.85;;;6.35;;
37205;SDS011;23099;42.636;23.198;2023-05-29T03:56:13;10.65;;;5.43;;
37205;SDS011;23099;42.636;23.198;2023-05-29T03:58:42;11.23;;;5.88;;
37205;SDS011;23099;42.636;23.198;2023-05-29T04:01:09;9.73;;;5.15;;
37205;SDS011;23099;42.636;23.198;2023-05-29T04:03:37;11.32;;;4.85;;
37205;SDS011;23099;42.636;23.198;2023-05-29T04:06:04;9.48;;;5.00;;
37205;SDS011;23099;42.636;23.198;2023-05-29T04:08:31;10.85;;;4.78;;
37205;SDS011;23099;42.636;23.198;2023-05-29T04:10:58;12.63;;;5.50;;
37205;SDS011;23099;42.636;23.198;2023-05-29T04:13:26;11.15;;;5.70;;
37205;SDS011;23099;42.636;23.198;2023-05-29T04:15:53;10.57;;;5.30;;
37205;SDS011;23099;42.636;23.198;2023-05-29T04:18:19;11.50;;;4.78;;
37205;SDS011;23099;42.636;23.198;2023-05-29T04:20:48;10.32;;;5.15;;
37205;SDS011;23099;42.636;23.198;2023-05-29T04:23:14;12.15;;;5.25;;
37205;SDS011;23099;42.636;23.198;2023-05-29T04:25:41;11.43;;;4.93;;
37205;SDS011;23099;42.636;23.198;2023-05-29T04:28:09;11.82;;;5.30;;
37205;SDS011;23099;42.636;23.198;2023-05-29T04:30:35;9.10;;;4.90;;
37205;SDS011;23099;42.636;23.198;2023-05-29T04:35:30;7.78;;;4.35;;
37205;SDS011;23099;42.636;23.198;2023-05-29T04:37:58;11.82;;;4.60;;
37205;SDS011;23099;42.636;23.198;2023-05-29T04:40:25;9.93;;;3.88;;
37205;SDS011;23099;42.636;23.198;2023-05-29T04:42:52;9.68;;;4.32;;
37205;SDS011;23099;42.636;23.198;2023-05-29T04:45:19;9.98;;;4.47;;
37205;SDS011;23099;42.636;23.198;2023-05-29T04:47:47;10.48;;;4.38;;
37205;SDS011;23099;42.636;23.198;2023-05-29T04:50:15;11.65;;;4.28;;
37205;SDS011;23099;42.636;23.198;2023-05-29T04:52:42;11.57;;;5.82;;
37205;SDS011;23099;42.636;23.198;2023-05-29T04:55:11;12.15;;;5.00;;
37205;SDS011;23099;42.636;23.198;2023-05-29T04:57:37;10.93;;;5.63;;
37205;SDS011;23099;42.636;23.198;2023-05-29T05:00:05;11.27;;;5.15;;
37205;SDS011;23099;42.636;23.198;2023-05-29T05:02:36;12.65;;;5.60;;
37205;SDS011;23099;42.636;23.198;2023-05-29T05:05:03;11.60;;;5.75;;
37205;SDS011;23099;42.636;23.198;2023-05-29T05:07:30;14.50;;;5.80;;
37205;SDS011;23099;42.636;23.198;2023-05-29T05:09:56;11.07;;;6.10;;
37205;SDS011;23099;42.636;23.198;2023-05-29T05:12:24;12.27;;;5.88;;
37205;SDS011;23099;42.636;23.198;2023-05-29T05:14:51;12.20;;;6.05;;
37205;SDS011;23099;42.636;23.198;2023-05-29T05:17:18;11.70;;;6.03;;
37205;SDS011;23099;42.636;23.198;2023-05-29T05:19:45;12.73;;;6.90;;
37205;SDS011;23099;42.636;23.198;2023-05-29T05:22:14;11.45;;;6.80;;
37205;SDS011;23099;42.636;23.198;2023-05-29T05:24:41;13.95;;;6.43;;
37205;SDS011;23099;42.636;23.198;2023-05-29T05:27:07;12.30;;;6.60;;
37205;SDS011;23099;42.636;23.198;2023-05-29T05:29:36;14.90;;;6.75;;
37205;SDS011;23099;42.636;23.198;2023-05-29T05:32:03;15.48;;;7.85;;
37205;SDS011;23099;42.636;23.198;2023-05-29T05:34:30;14.00;;;7.32;;
37205;SDS011;23099;42.636;23.198;2023-05-29T05:36:57;13.82;;;7.10;;
37205;SDS011;23099;42.636;23.198;2023-05-29T05:39:24;16.10;;;7.60;;
37205;SDS011;23099;42.636;23.198;2023-05-29T05:41:50;17.98;;;8.05;;
37205;SDS011;23099;42.636;23.198;2023-05-29T05:44:17;15.60;;;7.40;;
37205;SDS011;23099;42.636;23.198;2023-05-29T05:46:45;15.15;;;7.10;;
37205;SDS011;23099;42.636;23.198;2023-05-29T05:51:39;16.17;;;8.35;;
37205;SDS011;23099;42.636;23.198;2023-05-29T05:54:05;16.40;;;8.10;;
37205;SDS011;23099;42.636;23.198;2023-05-29T05:56:32;15.77;;;7.93;;
37205;SDS011;23099;42.636;23.198;2023-05-29T05:58:59;16.33;;;8.27;;
37205;SDS011;23099;42.636;23.198;2023-05-29T06:01:26;17.27;;;8.07;;
37205;SDS011;23099;42.636;23.198;2023-05-29T06:03:54;16.23;;;8.73;;
37205;SDS011;23099;42.636;23.198;2023-05-29T06:06:20;15.95;;;7.97;;
37205;SDS011;23099;42.636;23.198;2023-05-29T06:08:47;15.13;;;7.65;;
37205;SDS011;23099;42.636;23.198;2023-05-29T06:11:14;15.70;;;7.90;;
37205;SDS011;23099;42.636;23.198;2023-05-29T06:13:40;16.50;;;8.10;;
37205;SDS011;23099;42.636;23.198;2023-05-29T06:16:07;16.27;;;7.88;;
37205;SDS011;23099;42.636;23.198;2023-05-29T06:18:34;17.98;;;7.03;;
37205;SDS011;23099;42.636;23.198;2023-05-29T06:21:02;14.60;;;6.70;;
37205;SDS011;23099;42.636;23.198;2023-05-29T06:23:29;15.48;;;5.70;;
37205;SDS011;23099;42.636;23.198;2023-05-29T06:25:56;11.13;;;5.85;;
37205;SDS011;23099;42.636;23.198;2023-05-29T06:28:23;10.23;;;5.57;;
37205;SDS011;23099;42.636;23.198;2023-05-29T06:30:50;9.80;;;5.03;;
37205;SDS011;23099;42.636;23.198;2023-05-29T06:33:17;14.82;;;5.25;;
37205;SDS011;23099;42.636;23.198;2023-05-29T06:35:45;10.00;;;4.65;;
37205;SDS011;23099;42.636;23.198;2023-05-29T06:38:13;12.68;;;4.38;;
37205;SDS011;23099;42.636;23.198;2023-05-29T06:40:39;9.52;;;3.97;;
37205;SDS011;23099;42.636;23.198;2023-05-29T06:43:06;13.20;;;4.32;;
37205;SDS011;23099;42.636;23.198;2023-05-29T06:45:34;9.00;;;3.67;;
37205;SDS011;23099;42.636;23.198;2023-05-29T06:48:01;9.60;;;3.88;;
37205;SDS011;23099;42.636;23.198;2023-05-29T06:50:28;9.20;;;3.90;;
37205;SDS011;23099;42.636;23.198;2023-05-29T06:52:54;7.00;;;3.03;;
37205;SDS011;23099;42.636;23.198;2023-05-29T06:55:22;6.97;;;3.28;;
37205;SDS011;23099;42.636;23.198;2023-05-29T06:57:49;9.18;;;3.17;;
37205;SDS011;23099;42.636;23.198;2023-05-29T07:00:16;8.05;;;2.97;;
37205;SDS011;23099;42.636;23.198;2023-05-29T07:02:43;8.45;;;3.00;;
37205;SDS011;23099;42.636;23.198;2023-05-29T07:05:10;7.22;;;2.22;;
37205;SDS011;23099;42.636;23.198;2023-05-29T07:07:37;8.18;;;2.95;;
37205;SDS011;23099;42.636;23.198;2023-05-29T07:10:04;7.15;;;2.45;;
37205;SDS011;23099;42.636;23.198;2023-05-29T07:12:33;5.93;;;2.28;;
37205;SDS011;23099;42.636;23.198;2023-05-29T07:15:01;8.05;;;2.47;;
37205;SDS011;23099;42.636;23.198;2023-05-29T07:17:34;7.95;;;2.42;;
37205;SDS011;23099;42.636;23.198;2023-05-29T07:20:01;7.97;;;2.67;;
37205;SDS011;23099;42.636;23.198;2023-05-29T07:22:28;5.18;;;2.15;;
37205;SDS011;23099;42.636;23.198;2023-05-29T07:24:55;6.32;;;2.55;;
37205;SDS011;23099;42.636;23.198;2023-05-29T07:27:21;7.90;;;2.67;;
37205;SDS011;23099;42.636;23.198;2023-05-29T07:29:49;7.90;;;2.45;;
37205;SDS011;23099;42.636;23.198;2023-05-29T07:32:16;4.90;;;1.95;;
37205;SDS011;23099;42.636;23.198;2023-05-29T07:34:43;6.88;;;2.28;;
37205;SDS011;23099;42.636;23.198;2023-05-29T07:37:10;5.95;;;2.20;;
37205;SDS011;23099;42.636;23.198;2023-05-29T07:39:37;6.80;;;2.30;;
37205;SDS011;23099;42.636;23.198;2023-05-29T07:42:04;6.40;;;2.40;;
37205;SDS011;23099;42.636;23.198;2023-05-29T07:44:31;5.33;;;2.20;;
37205;SDS011;23099;42.636;23.198;2023-05-29T07:46:59;6.10;;;2.33;;
37205;SDS011;23099;42.636;23.198;2023-05-29T07:49:26;5.00;;;1.98;;
37205;SDS011;23099;42.636;23.198;2023-05-29T07:51:53;5.43;;;1.80;;
37205;SDS011;23099;42.636;23.198;2023-05-29T07:54:20;4.93;;;1.90;;
37205;SDS011;23099;42.636;23.198;2023-05-29T07:56:48;6.70;;;1.88;;
37205;SDS011;23099;42.636;23.198;2023-05-29T07:59:15;7.47;;;1.75;;
37205;SDS011;23099;42.636;23.198;2023-05-29T08:01:42;5.57;;;1.25;;
37205;SDS011;23099;42.636;23.198;2023-05-29T08:04:10;6.13;;;1.95;;
37205;SDS011;23099;42.636;23.198;2023-05-29T08:09:04;7.75;;;2.17;;
37205;SDS011;23099;42.636;23.198;2023-05-29T08:11:31;7.38;;;2.08;;
37205;SDS011;23099;42.636;23.198;2023-05-29T08:13:58;9.73;;;1.77;;
37205;SDS011;23099;42.636;23.198;2023-05-29T08:16:25;5.68;;;1.90;;
37205;SDS011;23099;42.636;23.198;2023-05-29T08:18:53;9.38;;;2.35;;
37205;SDS011;23099;42.636;23.198;2023-05-29T08:21:21;5.68;;;1.90;;
37205;SDS011;23099;42.636;23.198;2023-05-29T08:23:47;7.03;;;2.28;;
37205;SDS011;23099;42.636;23.198;2023-05-29T08:26:14;4.97;;;2.15;;
37205;SDS011;23099;42.636;23.198;2023-05-29T08:28:41;6.28;;;2.50;;
37205;SDS011;23099;42.636;23.198;2023-05-29T08:31:07;6.95;;;2.00;;
37205;SDS011;23099;42.636;23.198;2023-05-29T08:33:34;6.13;;;1.85;;
37205;SDS011;23099;42.636;23.198;2023-05-29T08:36:01;10.33;;;2.30;;
37205;SDS011;23099;42.636;23.198;2023-05-29T08:38:30;7.68;;;1.67;;
37205;SDS011;23099;42.636;23.198;2023-05-29T08:40:56;7.68;;;1.85;;
37205;SDS011;23099;42.636;23.198;2023-05-29T08:43:23;4.00;;;1.75;;
37205;SDS011;23099;42.636;23.198;2023-05-29T08:45:56;5.38;;;2.22;;
37205;SDS011;23099;42.636;23.198;2023-05-29T08:48:27;6.55;;;2.38;;
37205;SDS011;23099;42.636;23.198;2023-05-29T08:50:55;5.28;;;2.28;;
37205;SDS011;23099;42.636;23.198;2023-05-29T08:53:24;7.03;;;2.33;;
37205;SDS011;23099;42.636;23.198;2023-05-29T08:55:53;5.70;;;1.80;;
37205;SDS011;23099;42.636;23.198;2023-05-29T08:58:21;9.27;;;2.38;;
37205;SDS011;23099;42.636;23.198;2023-05-29T09:00:48;6.20;;;2.15;;
37205;SDS011;23099;42.636;23.198;2023-05-29T09:03:15;7.78;;;2.05;;
37205;SDS011;23099;42.636;23.198;2023-05-29T09:05:45;6.55;;;2.05;;
37205;SDS011;23099;42.636;23.198;2023-05-29T09:08:12;6.40;;;2.13;;
37205;SDS011;23099;42.636;23.198;2023-05-29T09:10:40;5.18;;;1.67;;
37205;SDS011;23099;42.636;23.198;2023-05-29T09:18:06;5.00;;;1.80;;
37205;SDS011;23099;42.636;23.198;2023-05-29T09:20:33;8.77;;;2.30;;
37205;SDS011;23099;42.636;23.198;2023-05-29T09:23:01;7.32;;;1.80;;
37205;SDS011;23099;42.636;23.198;2023-05-29T09:25:31;4.70;;;1.98;;
37205;SDS011;23099;42.636;23.198;2023-05-29T09:27:59;7.38;;;2.20;;
37205;SDS011;23099;42.636;23.198;2023-05-29T09:30:32;7.20;;;2.20;;
37205;SDS011;23099;42.636;23.198;2023-05-29T09:33:01;5.45;;;1.67;;
37205;SDS011;23099;42.636;23.198;2023-05-29T09:35:32;7.40;;;1.73;;
37205;SDS011;23099;42.636;23.198;2023-05-29T09:37:59;6.20;;;2.00;;
37205;SDS011;23099;42.636;23.198;2023-05-29T09:40:26;6.70;;;2.20;;
37205;SDS011;23099;42.636;23.198;2023-05-29T09:42:53;8.23;;;2.58;;
37205;SDS011;23099;42.636;23.198;2023-05-29T09:45:20;8.55;;;2.30;;
37205;SDS011;23099;42.636;23.198;2023-05-29T09:50:19;5.07;;;1.80;;
37205;SDS011;23099;42.636;23.198;2023-05-29T09:52:47;5.68;;;1.70;;
37205;SDS011;23099;42.636;23.198;2023-05-29T09:55:17;5.03;;;2.00;;
37205;SDS011;23099;42.636;23.198;2023-05-29T09:57:46;7.28;;;2.65;;
37205;SDS011;23099;42.636;23.198;2023-05-29T10:03:15;6.90;;;2.88;;
37205;SDS011;23099;42.636;23.198;2023-05-29T10:05:43;5.82;;;2.22;;
37205;SDS011;23099;42.636;23.198;2023-05-29T10:11:35;4.53;;;2.28;;
37205;SDS011;23099;42.636;23.198;2023-05-29T10:14:04;4.75;;;1.98;;
37205;SDS011;23099;42.636;23.198;2023-05-29T10:16:33;6.43;;;2.20;;
37205;SDS011;23099;42.636;23.198;2023-05-29T10:19:07;6.35;;;1.88;;
37205;SDS011;23099;42.636;23.198;2023-05-29T10:21:39;4.72;;;1.98;;
37205;SDS011;23099;42.636;23.198;2023-05-29T10:24:07;5.28;;;1.70;;
37205;SDS011;23099;42.636;23.198;2023-05-29T10:26:36;4.95;;;2.13;;
37205;SDS011;23099;42.636;23.198;2023-05-29T10:29:06;6.10;;;2.10;;
37205;SDS011;23099;42.636;23.198;2023-05-29T10:31:41;7.20;;;2.28;;
37205;SDS011;23099;42.636;23.198;2023-05-29T10:34:20;10.82;;;2.58;;
37205;SDS011;23099;42.636;23.198;2023-05-29T10:36:56;7.68;;;2.53;;
37205;SDS011;23099;42.636;23.198;2023-05-29T10:39:31;5.32;;;2.03;;
37205;SDS011;23099;42.636;23.198;2023-05-29T10:41:58;4.43;;;1.90;;
37205;SDS011;23099;42.636;23.198;2023-05-29T10:44:37;4.53;;;2.03;;
37205;SDS011;23099;42.636;23.198;2023-05-29T10:47:06;5.55;;;1.98;;
37205;SDS011;23099;42.636;23.198;2023-05-29T10:49:35;9.82;;;2.55;;
37205;SDS011;23099;42.636;23.198;2023-05-29T10:52:02;4.65;;;1.92;;
37205;SDS011;23099;42.636;23.198;2023-05-29T10:54:39;4.63;;;2.08;;
37205;SDS011;23099;42.636;23.198;2023-05-29T10:57:16;5.75;;;2.35;;
37205;SDS011;23099;42.636;23.198;2023-05-29T10:59:44;5.22;;;2.35;;
37205;SDS011;23099;42.636;23.198;2023-05-29T11:02:11;7.95;;;2.55;;
37205;SDS011;23099;42.636;23.198;2023-05-29T11:04:45;5.32;;;2.35;;
37205;SDS011;23099;42.636;23.198;2023-05-29T11:07:34;7.57;;;1.90;;
37205;SDS011;23099;42.636;23.198;2023-05-29T11:10:11;7.57;;;2.33;;
37205;SDS011;23099;42.636;23.198;2023-05-29T11:15:24;5.50;;;1.77;;
37205;SDS011;23099;42.636;23.198;2023-05-29T11:17:51;4.27;;;1.60;;
37205;SDS011;23099;42.636;23.198;2023-05-29T11:20:27;5.65;;;1.83;;
37205;SDS011;23099;42.636;23.198;2023-05-29T11:23:01;6.75;;;2.22;;
37205;SDS011;23099;42.636;23.198;2023-05-29T11:25:33;6.50;;;1.98;;
37205;SDS011;23099;42.636;23.198;2023-05-29T11:28:00;4.97;;;2.15;;
37205;SDS011;23099;42.636;23.198;2023-05-29T11:30:28;6.68;;;1.92;;
37205;SDS011;23099;42.636;23.198;2023-05-29T11:32:56;5.60;;;2.03;;
37205;SDS011;23099;42.636;23.198;2023-05-29T11:35:31;5.13;;;1.73;;
37205;SDS011;23099;42.636;23.198;2023-05-29T11:37:59;4.95;;;2.08;;
37205;SDS011;23099;42.636;23.198;2023-05-29T11:42:54;4.40;;;1.83;;
37205;SDS011;23099;42.636;23.198;2023-05-29T11:45:21;6.45;;;2.13;;
37205;SDS011;23099;42.636;23.198;2023-05-29T11:47:50;6.22;;;2.05;;
37205;SDS011;23099;42.636;23.198;2023-05-29T11:52:46;3.60;;;1.60;;
37205;SDS011;23099;42.636;23.198;2023-05-29T11:55:13;7.05;;;2.20;;
37205;SDS011;23099;42.636;23.198;2023-05-29T11:57:40;8.50;;;1.80;;
37205;SDS011;23099;42.636;23.198;2023-05-29T12:00:07;5.50;;;1.88;;
37205;SDS011;23099;42.636;23.198;2023-05-29T12:02:38;7.15;;;1.98;;
37205;SDS011;23099;42.636;23.198;2023-05-29T12:05:05;7.65;;;2.00;;
37205;SDS011;23099;42.636;23.198;2023-05-29T12:07:32;7.57;;;2.17;;
37205;SDS011;23099;42.636;23.198;2023-05-29T12:10:09;6.65;;;1.88;;
37205;SDS011;23099;42.636;23.198;2023-05-29T12:12:36;5.63;;;2.20;;
37205;SDS011;23099;42.636;23.198;2023-05-29T12:15:04;5.63;;;1.73;;
37205;SDS011;23099;42.636;23.198;2023-05-29T12:17:32;5.07;;;1.92;;
37205;SDS011;23099;42.636;23.198;2023-05-29T12:19:59;4.65;;;2.00;;
37205;SDS011;23099;42.636;23.198;2023-05-29T12:22:32;5.78;;;2.25;;
37205;SDS011;23099;42.636;23.198;2023-05-29T12:25:04;10.60;;;2.67;;
37205;SDS011;23099;42.636;23.198;2023-05-29T12:27:33;13.30;;;3.00;;
37205;SDS011;23099;42.636;23.198;2023-05-29T12:30:06;20.05;;;5.25;;
37205;SDS011;23099;42.636;23.198;2023-05-29T12:32:35;17.17;;;4.07;;
37205;SDS011;23099;42.636;23.198;2023-05-29T12:35:09;11.43;;;3.95;;
37205;SDS011;23099;42.636;23.198;2023-05-29T12:37:41;8.70;;;3.95;;
37205;SDS011;23099;42.636;23.198;2023-05-29T12:40:08;10.55;;;3.92;;
37205;SDS011;23099;42.636;23.198;2023-05-29T12:42:38;10.70;;;4.50;;
37205;SDS011;23099;42.636;23.198;2023-05-29T12:45:06;10.88;;;4.30;;
37205;SDS011;23099;42.636;23.198;2023-05-29T12:47:34;14.02;;;4.35;;
37205;SDS011;23099;42.636;23.198;2023-05-29T12:50:04;10.70;;;4.68;;
37205;SDS011;23099;42.636;23.198;2023-05-29T12:52:41;11.20;;;4.20;;
37205;SDS011;23099;42.636;23.198;2023-05-29T12:55:08;18.73;;;4.45;;
37205;SDS011;23099;42.636;23.198;2023-05-29T12:57:34;6.20;;;2.25;;
37205;SDS011;23099;42.636;23.198;2023-05-29T13:00:03;9.88;;;3.22;;
37205;SDS011;23099;42.636;23.198;2023-05-29T13:02:30;10.57;;;3.17;;
37205;SDS011;23099;42.636;23.198;2023-05-29T13:04:57;10.82;;;3.60;;
37205;SDS011;23099;42.636;23.198;2023-05-29T13:07:24;10.25;;;4.28;;
37205;SDS011;23099;42.636;23.198;2023-05-29T13:09:53;14.00;;;4.53;;
37205;SDS011;23099;42.636;23.198;2023-05-29T13:12:20;12.18;;;5.10;;
37205;SDS011;23099;42.636;23.198;2023-05-29T13:14:46;11.02;;;4.80;;
37205;SDS011;23099;42.636;23.198;2023-05-29T13:17:15;11.27;;;4.65;;
37205;SDS011;23099;42.636;23.198;2023-05-29T13:19:42;10.57;;;5.47;;
37205;SDS011;23099;42.636;23.198;2023-05-29T13:22:09;11.02;;;5.97;;
37205;SDS011;23099;42.636;23.198;2023-05-29T13:24:35;15.77;;;5.93;;
37205;SDS011;23099;42.636;23.198;2023-05-29T13:27:02;13.20;;;7.60;;
37205;SDS011;23099;42.636;23.198;2023-05-29T13:29:30;12.93;;;7.25;;
37205;SDS011;23099;42.636;23.198;2023-05-29T13:31:57;12.77;;;7.20;;
37205;SDS011;23099;42.636;23.198;2023-05-29T13:34:25;15.57;;;6.85;;
37205;SDS011;23099;42.636;23.198;2023-05-29T13:36:53;14.88;;;7.15;;
37205;SDS011;23099;42.636;23.198;2023-05-29T13:39:20;11.35;;;6.38;;
37205;SDS011;23099;42.636;23.198;2023-05-29T13:41:47;10.13;;;4.57;;
37205;SDS011;23099;42.636;23.198;2023-05-29T13:44:14;8.90;;;4.68;;
37205;SDS011;23099;42.636;23.198;2023-05-29T13:46:40;10.70;;;4.55;;
37205;SDS011;23099;42.636;23.198;2023-05-29T13:49:07;10.18;;;4.97;;
37205;SDS011;23099;42.636;23.198;2023-05-29T13:51:35;11.10;;;4.70;;
37205;SDS011;23099;42.636;23.198;2023-05-29T13:54:02;11.20;;;4.88;;
37205;SDS011;23099;42.636;23.198;2023-05-29T13:56:29;8.98;;;4.47;;
37205;SDS011;23099;42.636;23.198;2023-05-29T13:58:56;7.80;;;4.82;;
37205;SDS011;23099;42.636;23.198;2023-05-29T14:01:24;8.27;;;4.13;;
37205;SDS011;23099;42.636;23.198;2023-05-29T14:03:51;8.98;;;4.35;;
37205;SDS011;23099;42.636;23.198;2023-05-29T14:06:18;10.00;;;4.22;;
37205;SDS011;23099;42.636;23.198;2023-05-29T14:08:46;7.72;;;4.07;;
37205;SDS011;23099;42.636;23.198;2023-05-29T14:11:12;9.93;;;4.50;;
37205;SDS011;23099;42.636;23.198;2023-05-29T14:13:39;9.43;;;4.00;;
37205;SDS011;23099;42.636;23.198;2023-05-29T14:16:06;10.35;;;4.50;;
37205;SDS011;23099;42.636;23.198;2023-05-29T14:18:33;9.90;;;4.25;;
37205;SDS011;23099;42.636;23.198;2023-05-29T14:20:59;10.68;;;3.40;;
37205;SDS011;23099;42.636;23.198;2023-05-29T14:23:26;7.53;;;3.47;;
37205;SDS011;23099;42.636;23.198;2023-05-29T14:25:54;7.40;;;3.10;;
37205;SDS011;23099;42.636;23.198;2023-05-29T14:28:21;8.82;;;4.00;;
37205;SDS011;23099;42.636;23.198;2023-05-29T14:30:47;8.82;;;4.07;;
37205;SDS011;23099;42.636;23.198;2023-05-29T14:33:14;7.90;;;4.00;;
37205;SDS011;23099;42.636;23.198;2023-05-29T14:35:41;6.68;;;4.15;;
37205;SDS011;23099;42.636;23.198;2023-05-29T14:38:07;8.77;;;2.58;;
37205;SDS011;23099;42.636;23.198;2023-05-29T14:40:34;3.78;;;1.17;;
37205;SDS011;23099;42.636;23.198;2023-05-29T14:43:03;4.70;;;0.85;;
37205;SDS011;23099;42.636;23.198;2023-05-29T14:47:57;3.55;;;1.02;;
37205;SDS011;23099;42.636;23.198;2023-05-29T14:50:23;2.90;;;0.98;;
37205;SDS011;23099;42.636;23.198;2023-05-29T14:52:50;5.13;;;1.15;;
37205;SDS011;23099;42.636;23.198;2023-05-29T14:55:17;6.95;;;1.25;;
37205;SDS011;23099;42.636;23.198;2023-05-29T14:57:43;12.48;;;1.30;;
37205;SDS011;23099;42.636;23.198;2023-05-29T15:00:12;4.55;;;1.30;;
37205;SDS011;23099;42.636;23.198;2023-05-29T15:02:39;3.85;;;1.00;;
37205;SDS011;23099;42.636;23.198;2023-05-29T15:05:06;3.30;;;1.13;;
37205;SDS011;23099;42.636;23.198;2023-05-29T15:07:33;3.47;;;1.10;;
37205;SDS011;23099;42.636;23.198;2023-05-29T15:10:00;4.20;;;1.42;;
37205;SDS011;23099;42.636;23.198;2023-05-29T15:12:27;5.60;;;1.35;;